Kolobrzeg, Poland

10:28 AM CET on March 28, 2015 (GMT +0100)
Wybrzeże | | Change Station
CLOSE
Current Station
Personal Weather Station
Location: Niekłonice, WOJEWóDZTWO ZACHODNIOPOMORSKIE
Elevation: 118 ft
Nearby Weather Stations

Elev 118 ft 54.16 °N, 16.15 °E | Updated 11 seconds ago

Clear
Clear
44.1 °F
Feels Like 38 °F
N
12.8
Wind Variable Wind from NW
Gusts 15.0 mph

Today
High -- | Low -- °F
--% Chance of Precip.
Yesterday
High -- | Low -- °F
Precip. -- in
5:41 AM 6:25 PM
First Quarter, 61% visible
Pressure 30.09 in
Visibility -9999.0 miles
Clouds
Windchill 38 °F
Dew Point 35 °F
Humidity 70%
Rainfall 0.00 in
Snow Depth Not available.
UV 3.0 out of 12
Pollen Not available.
Air Quality Not available.
Flu Activity Not available.
METAR EDAH 280920Z 33005KT 240V010 CAVOK 07/00 Q1019

More Conditions Fewer Conditions

Pressure 30.09 in
Visibility -9999.0 miles
Clouds
Windchill 38 °F
Dew Point 35 °F
Humidity 70%
Rainfall 0.00 in
Snow Depth Not available.
UV 3.0 out of 12
Pollen Not available.
Air Quality Not available.
Flu Activity Not available.
METAR EDAH 280920Z 33005KT 240V010 CAVOK 07/00 Q1019

More Conditions Fewer Conditions

10-Day Weather Forecast

Almanac

Astronomy

Mar. 28, 2015 Rise Set
Actual Time
Civil Twilight
Nautical Twilight
Astronomical Twilight
Moon
Length of Visible Light
Length of Day
Tomorrow will be .
, % of the Moon is Illuminated

Today's Extremes

Country Highs Country Lows

Community

WunderPhotos

Upload Photos

1,808,939 photos uploaded!

WunderBlogs® & News

Nearby

Air Quality

  Air Quality AQ Index Pollutant
Not available.

Snow Depth

Station Depth Elevation

Earthquake Activity

City Distance Mag. Time & Date
Minimum magnitude displayed is 2.5.

Coastal Water Temperatures

Place Temperature

Stations

Nearby Weather Stations

Station Location Temp. Windchill Dew Point Humidity Wind Precip. Elev Updated Type